sensor_id;sensor_type;location;lat;lon;timestamp;P1;durP1;ratioP1;P2;durP2;ratioP2
78960;SDS011;68362;45.970;12.646;2023-04-06T00:00:00;9.75;;;5.65;;
78960;SDS011;68362;45.970;12.646;2023-04-06T00:01:02;8.52;;;5.28;;
78960;SDS011;68362;45.970;12.646;2023-04-06T00:02:04;8.23;;;4.93;;
78960;SDS011;68362;45.970;12.646;2023-04-06T00:03:06;11.13;;;5.30;;
78960;SDS011;68362;45.970;12.646;2023-04-06T00:04:09;10.13;;;4.53;;
78960;SDS011;68362;45.970;12.646;2023-04-06T00:05:11;8.30;;;5.05;;
78960;SDS011;68362;45.970;12.646;2023-04-06T00:06:14;10.20;;;5.13;;
78960;SDS011;68362;45.970;12.646;2023-04-06T00:07:17;7.88;;;4.40;;
78960;SDS011;68362;45.970;12.646;2023-04-06T00:08:19;10.65;;;5.97;;
78960;SDS011;68362;45.970;12.646;2023-04-06T00:09:22;11.35;;;5.72;;
78960;SDS011;68362;45.970;12.646;2023-04-06T00:10:25;11.98;;;5.93;;
78960;SDS011;68362;45.970;12.646;2023-04-06T00:11:27;11.70;;;6.25;;
78960;SDS011;68362;45.970;12.646;2023-04-06T00:12:29;13.90;;;6.13;;
78960;SDS011;68362;45.970;12.646;2023-04-06T00:13:31;11.98;;;6.28;;
78960;SDS011;68362;45.970;12.646;2023-04-06T00:14:34;12.75;;;6.90;;
78960;SDS011;68362;45.970;12.646;2023-04-06T00:15:36;11.82;;;6.18;;
78960;SDS011;68362;45.970;12.646;2023-04-06T00:16:38;9.98;;;5.60;;
78960;SDS011;68362;45.970;12.646;2023-04-06T00:17:40;11.80;;;5.53;;
78960;SDS011;68362;45.970;12.646;2023-04-06T00:18:42;15.95;;;6.47;;
78960;SDS011;68362;45.970;12.646;2023-04-06T00:19:44;11.85;;;5.97;;
78960;SDS011;68362;45.970;12.646;2023-04-06T00:20:46;19.92;;;7.85;;
78960;SDS011;68362;45.970;12.646;2023-04-06T00:21:48;10.93;;;6.55;;
78960;SDS011;68362;45.970;12.646;2023-04-06T00:22:51;13.68;;;6.65;;
78960;SDS011;68362;45.970;12.646;2023-04-06T00:23:53;12.55;;;6.50;;
78960;SDS011;68362;45.970;12.646;2023-04-06T00:24:55;11.70;;;5.65;;
78960;SDS011;68362;45.970;12.646;2023-04-06T00:25:57;10.70;;;6.45;;
78960;SDS011;68362;45.970;12.646;2023-04-06T00:26:59;15.60;;;6.28;;
78960;SDS011;68362;45.970;12.646;2023-04-06T00:28:02;11.82;;;5.55;;
78960;SDS011;68362;45.970;12.646;2023-04-06T00:29:05;10.25;;;6.18;;
78960;SDS011;68362;45.970;12.646;2023-04-06T00:30:07;11.07;;;7.35;;
78960;SDS011;68362;45.970;12.646;2023-04-06T00:32:12;10.20;;;5.47;;
78960;SDS011;68362;45.970;12.646;2023-04-06T00:33:14;12.27;;;6.75;;
78960;SDS011;68362;45.970;12.646;2023-04-06T00:34:16;11.10;;;5.97;;
78960;SDS011;68362;45.970;12.646;2023-04-06T00:35:19;12.82;;;6.05;;
78960;SDS011;68362;45.970;12.646;2023-04-06T00:36:21;12.98;;;6.45;;
78960;SDS011;68362;45.970;12.646;2023-04-06T00:37:23;15.75;;;6.65;;
78960;SDS011;68362;45.970;12.646;2023-04-06T00:38:25;11.70;;;6.25;;
78960;SDS011;68362;45.970;12.646;2023-04-06T00:39:28;8.98;;;5.65;;
78960;SDS011;68362;45.970;12.646;2023-04-06T00:40:30;10.40;;;5.28;;
78960;SDS011;68362;45.970;12.646;2023-04-06T00:41:32;16.98;;;6.63;;
78960;SDS011;68362;45.970;12.646;2023-04-06T00:42:34;11.20;;;6.10;;
78960;SDS011;68362;45.970;12.646;2023-04-06T00:43:37;13.40;;;5.13;;
78960;SDS011;68362;45.970;12.646;2023-04-06T00:44:42;9.75;;;5.40;;
78960;SDS011;68362;45.970;12.646;2023-04-06T00:45:45;10.27;;;6.20;;
78960;SDS011;68362;45.970;12.646;2023-04-06T00:46:47;7.78;;;4.70;;
78960;SDS011;68362;45.970;12.646;2023-04-06T00:47:49;8.90;;;5.15;;
78960;SDS011;68362;45.970;12.646;2023-04-06T00:48:51;8.80;;;4.95;;
78960;SDS011;68362;45.970;12.646;2023-04-06T00:49:54;8.32;;;4.15;;
78960;SDS011;68362;45.970;12.646;2023-04-06T00:50:57;6.03;;;3.60;;
78960;SDS011;68362;45.970;12.646;2023-04-06T00:52:00;8.82;;;4.53;;
78960;SDS011;68362;45.970;12.646;2023-04-06T00:53:03;6.97;;;4.45;;
78960;SDS011;68362;45.970;12.646;2023-04-06T00:54:05;8.05;;;4.30;;
78960;SDS011;68362;45.970;12.646;2023-04-06T00:55:07;7.82;;;4.75;;
78960;SDS011;68362;45.970;12.646;2023-04-06T00:56:09;6.13;;;4.18;;
78960;SDS011;68362;45.970;12.646;2023-04-06T00:57:11;5.97;;;4.00;;
78960;SDS011;68362;45.970;12.646;2023-04-06T00:59:16;5.32;;;3.35;;
78960;SDS011;68362;45.970;12.646;2023-04-06T01:00:19;8.18;;;4.40;;
78960;SDS011;68362;45.970;12.646;2023-04-06T01:01:21;6.63;;;4.82;;
78960;SDS011;68362;45.970;12.646;2023-04-06T01:02:25;6.40;;;3.88;;
78960;SDS011;68362;45.970;12.646;2023-04-06T01:03:30;6.38;;;3.80;;
78960;SDS011;68362;45.970;12.646;2023-04-06T01:04:32;5.60;;;3.83;;
78960;SDS011;68362;45.970;12.646;2023-04-06T01:05:35;6.45;;;4.03;;
78960;SDS011;68362;45.970;12.646;2023-04-06T01:06:42;7.72;;;4.07;;
78960;SDS011;68362;45.970;12.646;2023-04-06T01:07:44;10.30;;;4.50;;
78960;SDS011;68362;45.970;12.646;2023-04-06T01:08:46;5.43;;;3.95;;
78960;SDS011;68362;45.970;12.646;2023-04-06T01:09:48;4.85;;;3.42;;
78960;SDS011;68362;45.970;12.646;2023-04-06T01:10:50;6.22;;;3.80;;
78960;SDS011;68362;45.970;12.646;2023-04-06T01:11:52;7.28;;;4.18;;
78960;SDS011;68362;45.970;12.646;2023-04-06T01:12:54;7.72;;;3.83;;
78960;SDS011;68362;45.970;12.646;2023-04-06T01:13:56;8.35;;;3.92;;
78960;SDS011;68362;45.970;12.646;2023-04-06T01:14:59;6.82;;;3.92;;
78960;SDS011;68362;45.970;12.646;2023-04-06T01:16:01;6.68;;;3.53;;
78960;SDS011;68362;45.970;12.646;2023-04-06T01:17:12;6.93;;;3.95;;
78960;SDS011;68362;45.970;12.646;2023-04-06T01:18:14;7.32;;;3.78;;
78960;SDS011;68362;45.970;12.646;2023-04-06T01:19:17;5.53;;;3.97;;
78960;SDS011;68362;45.970;12.646;2023-04-06T01:20:19;8.48;;;4.72;;
78960;SDS011;68362;45.970;12.646;2023-04-06T01:21:21;10.43;;;5.20;;
78960;SDS011;68362;45.970;12.646;2023-04-06T01:22:23;7.75;;;4.10;;
78960;SDS011;68362;45.970;12.646;2023-04-06T01:23:25;5.45;;;3.58;;
78960;SDS011;68362;45.970;12.646;2023-04-06T01:24:28;7.55;;;4.65;;
78960;SDS011;68362;45.970;12.646;2023-04-06T01:25:30;7.95;;;4.63;;
78960;SDS011;68362;45.970;12.646;2023-04-06T01:26:33;7.50;;;3.72;;
78960;SDS011;68362;45.970;12.646;2023-04-06T01:27:35;6.50;;;3.80;;
78960;SDS011;68362;45.970;12.646;2023-04-06T01:28:37;10.70;;;4.65;;
78960;SDS011;68362;45.970;12.646;2023-04-06T01:29:40;6.45;;;3.67;;
78960;SDS011;68362;45.970;12.646;2023-04-06T01:30:43;9.00;;;5.13;;
78960;SDS011;68362;45.970;12.646;2023-04-06T01:31:44;7.55;;;4.57;;
78960;SDS011;68362;45.970;12.646;2023-04-06T01:32:47;6.78;;;4.43;;
78960;SDS011;68362;45.970;12.646;2023-04-06T01:33:52;7.35;;;4.43;;
78960;SDS011;68362;45.970;12.646;2023-04-06T01:34:54;6.38;;;3.75;;
78960;SDS011;68362;45.970;12.646;2023-04-06T01:35:56;5.80;;;3.90;;
78960;SDS011;68362;45.970;12.646;2023-04-06T01:36:58;7.07;;;3.90;;
78960;SDS011;68362;45.970;12.646;2023-04-06T01:38:01;4.95;;;3.70;;
78960;SDS011;68362;45.970;12.646;2023-04-06T01:39:03;5.15;;;3.42;;
78960;SDS011;68362;45.970;12.646;2023-04-06T01:40:05;7.05;;;3.63;;
78960;SDS011;68362;45.970;12.646;2023-04-06T01:41:08;7.65;;;4.15;;
78960;SDS011;68362;45.970;12.646;2023-04-06T01:42:10;7.25;;;4.10;;
78960;SDS011;68362;45.970;12.646;2023-04-06T01:43:17;5.57;;;3.50;;
78960;SDS011;68362;45.970;12.646;2023-04-06T01:44:19;8.02;;;3.95;;
78960;SDS011;68362;45.970;12.646;2023-04-06T01:45:21;7.28;;;4.63;;
78960;SDS011;68362;45.970;12.646;2023-04-06T01:46:24;9.57;;;4.05;;
78960;SDS011;68362;45.970;12.646;2023-04-06T01:47:26;5.93;;;3.40;;
78960;SDS011;68362;45.970;12.646;2023-04-06T01:48:28;6.50;;;3.75;;
78960;SDS011;68362;45.970;12.646;2023-04-06T01:49:31;5.97;;;3.85;;
78960;SDS011;68362;45.970;12.646;2023-04-06T01:50:36;6.55;;;3.40;;
78960;SDS011;68362;45.970;12.646;2023-04-06T01:51:38;5.97;;;3.70;;
78960;SDS011;68362;45.970;12.646;2023-04-06T01:52:40;7.05;;;4.32;;
78960;SDS011;68362;45.970;12.646;2023-04-06T01:53:42;8.35;;;3.90;;
78960;SDS011;68362;45.970;12.646;2023-04-06T01:54:45;7.78;;;3.83;;
78960;SDS011;68362;45.970;12.646;2023-04-06T01:55:47;8.95;;;3.90;;
78960;SDS011;68362;45.970;12.646;2023-04-06T01:56:49;6.25;;;4.00;;
78960;SDS011;68362;45.970;12.646;2023-04-06T01:57:53;8.73;;;4.38;;
78960;SDS011;68362;45.970;12.646;2023-04-06T01:58:55;7.22;;;4.07;;
78960;SDS011;68362;45.970;12.646;2023-04-06T01:59:58;6.45;;;4.03;;
78960;SDS011;68362;45.970;12.646;2023-04-06T02:01:00;6.45;;;3.63;;
78960;SDS011;68362;45.970;12.646;2023-04-06T02:02:02;6.90;;;3.97;;
78960;SDS011;68362;45.970;12.646;2023-04-06T02:03:04;5.80;;;4.15;;
78960;SDS011;68362;45.970;12.646;2023-04-06T02:04:06;4.35;;;3.38;;
78960;SDS011;68362;45.970;12.646;2023-04-06T02:05:08;6.82;;;3.80;;
78960;SDS011;68362;45.970;12.646;2023-04-06T02:06:10;8.57;;;4.03;;
78960;SDS011;68362;45.970;12.646;2023-04-06T02:07:13;15.82;;;3.70;;
78960;SDS011;68362;45.970;12.646;2023-04-06T02:08:15;6.38;;;4.47;;
78960;SDS011;68362;45.970;12.646;2023-04-06T02:09:17;6.18;;;3.33;;
78960;SDS011;68362;45.970;12.646;2023-04-06T02:10:19;6.18;;;3.90;;
78960;SDS011;68362;45.970;12.646;2023-04-06T02:11:21;5.57;;;3.78;;
78960;SDS011;68362;45.970;12.646;2023-04-06T02:12:23;6.07;;;4.03;;
78960;SDS011;68362;45.970;12.646;2023-04-06T02:13:26;9.18;;;3.58;;
78960;SDS011;68362;45.970;12.646;2023-04-06T02:14:28;7.07;;;4.22;;
78960;SDS011;68362;45.970;12.646;2023-04-06T02:15:30;6.78;;;3.90;;
78960;SDS011;68362;45.970;12.646;2023-04-06T02:16:32;9.93;;;3.85;;
78960;SDS011;68362;45.970;12.646;2023-04-06T02:17:34;5.55;;;3.60;;
78960;SDS011;68362;45.970;12.646;2023-04-06T02:18:36;5.32;;;4.05;;
78960;SDS011;68362;45.970;12.646;2023-04-06T02:19:39;5.15;;;3.78;;
78960;SDS011;68362;45.970;12.646;2023-04-06T02:20:41;5.60;;;3.70;;
78960;SDS011;68362;45.970;12.646;2023-04-06T02:21:43;6.28;;;4.05;;
78960;SDS011;68362;45.970;12.646;2023-04-06T02:22:45;7.72;;;3.75;;
78960;SDS011;68362;45.970;12.646;2023-04-06T02:23:47;5.63;;;3.90;;
78960;SDS011;68362;45.970;12.646;2023-04-06T02:24:50;6.43;;;3.90;;
78960;SDS011;68362;45.970;12.646;2023-04-06T02:25:52;7.47;;;3.80;;
78960;SDS011;68362;45.970;12.646;2023-04-06T02:26:54;8.85;;;3.75;;
78960;SDS011;68362;45.970;12.646;2023-04-06T02:27:57;7.13;;;4.20;;
78960;SDS011;68362;45.970;12.646;2023-04-06T02:28:59;5.13;;;4.00;;
78960;SDS011;68362;45.970;12.646;2023-04-06T02:30:01;7.43;;;3.83;;
78960;SDS011;68362;45.970;12.646;2023-04-06T02:31:04;7.45;;;4.00;;
78960;SDS011;68362;45.970;12.646;2023-04-06T02:32:06;5.82;;;3.53;;
78960;SDS011;68362;45.970;12.646;2023-04-06T02:33:08;6.65;;;3.88;;
78960;SDS011;68362;45.970;12.646;2023-04-06T02:34:11;7.05;;;4.47;;
78960;SDS011;68362;45.970;12.646;2023-04-06T02:35:19;6.25;;;4.00;;
78960;SDS011;68362;45.970;12.646;2023-04-06T02:36:21;7.28;;;3.65;;
78960;SDS011;68362;45.970;12.646;2023-04-06T02:37:23;7.28;;;4.68;;
78960;SDS011;68362;45.970;12.646;2023-04-06T02:38:25;6.72;;;3.63;;
78960;SDS011;68362;45.970;12.646;2023-04-06T02:39:27;6.85;;;3.72;;
78960;SDS011;68362;45.970;12.646;2023-04-06T02:40:30;8.13;;;4.72;;
78960;SDS011;68362;45.970;12.646;2023-04-06T02:41:32;7.50;;;4.10;;
78960;SDS011;68362;45.970;12.646;2023-04-06T02:42:34;5.72;;;3.92;;
78960;SDS011;68362;45.970;12.646;2023-04-06T02:43:36;9.38;;;4.25;;
78960;SDS011;68362;45.970;12.646;2023-04-06T02:44:38;6.50;;;3.60;;
78960;SDS011;68362;45.970;12.646;2023-04-06T02:45:40;5.95;;;3.67;;
78960;SDS011;68362;45.970;12.646;2023-04-06T02:46:42;6.90;;;4.03;;
78960;SDS011;68362;45.970;12.646;2023-04-06T02:47:44;7.18;;;3.88;;
78960;SDS011;68362;45.970;12.646;2023-04-06T02:48:47;6.22;;;3.90;;
78960;SDS011;68362;45.970;12.646;2023-04-06T02:49:49;5.97;;;3.97;;
78960;SDS011;68362;45.970;12.646;2023-04-06T02:50:51;6.65;;;3.90;;
78960;SDS011;68362;45.970;12.646;2023-04-06T02:51:53;7.50;;;4.25;;
78960;SDS011;68362;45.970;12.646;2023-04-06T02:52:55;6.13;;;4.00;;
78960;SDS011;68362;45.970;12.646;2023-04-06T02:53:57;5.30;;;3.95;;
78960;SDS011;68362;45.970;12.646;2023-04-06T02:54:59;8.10;;;4.22;;
78960;SDS011;68362;45.970;12.646;2023-04-06T02:56:01;8.93;;;5.15;;
78960;SDS011;68362;45.970;12.646;2023-04-06T02:57:04;5.78;;;4.50;;
78960;SDS011;68362;45.970;12.646;2023-04-06T02:58:06;6.43;;;4.25;;
78960;SDS011;68362;45.970;12.646;2023-04-06T02:59:08;8.38;;;4.07;;
78960;SDS011;68362;45.970;12.646;2023-04-06T03:00:11;6.03;;;4.15;;
78960;SDS011;68362;45.970;12.646;2023-04-06T03:01:13;6.90;;;3.90;;
78960;SDS011;68362;45.970;12.646;2023-04-06T03:02:16;7.60;;;4.53;;
78960;SDS011;68362;45.970;12.646;2023-04-06T03:03:18;6.70;;;4.50;;
78960;SDS011;68362;45.970;12.646;2023-04-06T03:04:20;5.35;;;3.38;;
78960;SDS011;68362;45.970;12.646;2023-04-06T03:05:25;8.43;;;3.88;;
78960;SDS011;68362;45.970;12.646;2023-04-06T03:06:27;6.95;;;4.28;;
78960;SDS011;68362;45.970;12.646;2023-04-06T03:07:29;6.95;;;4.10;;
78960;SDS011;68362;45.970;12.646;2023-04-06T03:08:31;7.00;;;3.75;;
78960;SDS011;68362;45.970;12.646;2023-04-06T03:09:34;6.28;;;4.10;;
78960;SDS011;68362;45.970;12.646;2023-04-06T03:10:37;7.78;;;4.00;;
78960;SDS011;68362;45.970;12.646;2023-04-06T03:11:40;6.10;;;4.03;;
78960;SDS011;68362;45.970;12.646;2023-04-06T03:12:41;6.10;;;3.88;;
78960;SDS011;68362;45.970;12.646;2023-04-06T03:13:44;7.05;;;3.88;;
78960;SDS011;68362;45.970;12.646;2023-04-06T03:14:46;7.40;;;4.35;;
78960;SDS011;68362;45.970;12.646;2023-04-06T03:15:48;9.02;;;4.28;;
78960;SDS011;68362;45.970;12.646;2023-04-06T03:16:50;6.47;;;3.63;;
78960;SDS011;68362;45.970;12.646;2023-04-06T03:17:52;6.65;;;3.72;;
78960;SDS011;68362;45.970;12.646;2023-04-06T03:18:54;8.23;;;3.78;;
78960;SDS011;68362;45.970;12.646;2023-04-06T03:19:56;5.05;;;3.75;;
78960;SDS011;68362;45.970;12.646;2023-04-06T03:20:58;6.57;;;3.58;;
78960;SDS011;68362;45.970;12.646;2023-04-06T03:22:02;7.40;;;4.65;;
78960;SDS011;68362;45.970;12.646;2023-04-06T03:23:04;7.80;;;4.03;;
78960;SDS011;68362;45.970;12.646;2023-04-06T03:24:06;7.85;;;3.80;;
78960;SDS011;68362;45.970;12.646;2023-04-06T03:25:08;6.82;;;3.97;;
78960;SDS011;68362;45.970;12.646;2023-04-06T03:26:11;7.38;;;4.00;;
78960;SDS011;68362;45.970;12.646;2023-04-06T03:27:12;4.90;;;3.80;;
78960;SDS011;68362;45.970;12.646;2023-04-06T03:28:15;6.05;;;3.97;;
78960;SDS011;68362;45.970;12.646;2023-04-06T03:30:20;5.30;;;3.28;;
78960;SDS011;68362;45.970;12.646;2023-04-06T03:31:22;8.23;;;4.45;;
78960;SDS011;68362;45.970;12.646;2023-04-06T03:32:24;6.38;;;3.53;;
78960;SDS011;68362;45.970;12.646;2023-04-06T03:33:26;5.80;;;3.83;;
78960;SDS011;68362;45.970;12.646;2023-04-06T03:34:31;6.63;;;3.90;;
78960;SDS011;68362;45.970;12.646;2023-04-06T03:35:33;7.75;;;4.28;;
78960;SDS011;68362;45.970;12.646;2023-04-06T03:36:35;6.32;;;3.90;;
78960;SDS011;68362;45.970;12.646;2023-04-06T03:37:37;5.57;;;3.47;;
78960;SDS011;68362;45.970;12.646;2023-04-06T03:38:40;7.07;;;4.03;;
78960;SDS011;68362;45.970;12.646;2023-04-06T03:39:42;5.68;;;3.35;;
78960;SDS011;68362;45.970;12.646;2023-04-06T03:40:44;6.07;;;3.63;;
78960;SDS011;68362;45.970;12.646;2023-04-06T03:41:46;4.75;;;3.40;;
78960;SDS011;68362;45.970;12.646;2023-04-06T03:42:48;5.05;;;3.60;;
78960;SDS011;68362;45.970;12.646;2023-04-06T03:43:50;6.35;;;3.22;;
78960;SDS011;68362;45.970;12.646;2023-04-06T03:44:52;7.00;;;4.20;;
78960;SDS011;68362;45.970;12.646;2023-04-06T03:45:54;7.57;;;3.67;;
78960;SDS011;68362;45.970;12.646;2023-04-06T03:46:56;6.35;;;4.03;;
78960;SDS011;68362;45.970;12.646;2023-04-06T03:47:58;7.15;;;3.70;;
78960;SDS011;68362;45.970;12.646;2023-04-06T03:49:01;7.78;;;4.13;;
78960;SDS011;68362;45.970;12.646;2023-04-06T03:50:04;10.32;;;3.80;;
78960;SDS011;68362;45.970;12.646;2023-04-06T03:52:08;5.70;;;3.28;;
78960;SDS011;68362;45.970;12.646;2023-04-06T03:53:10;4.95;;;3.38;;
78960;SDS011;68362;45.970;12.646;2023-04-06T03:54:12;6.93;;;3.80;;
78960;SDS011;68362;45.970;12.646;2023-04-06T03:55:15;12.38;;;4.22;;
78960;SDS011;68362;45.970;12.646;2023-04-06T03:56:17;5.95;;;3.25;;
78960;SDS011;68362;45.970;12.646;2023-04-06T03:57:19;4.60;;;3.38;;
78960;SDS011;68362;45.970;12.646;2023-04-06T03:58:21;8.15;;;3.53;;
78960;SDS011;68362;45.970;12.646;2023-04-06T03:59:23;4.95;;;3.05;;
78960;SDS011;68362;45.970;12.646;2023-04-06T04:00:26;5.22;;;3.13;;
78960;SDS011;68362;45.970;12.646;2023-04-06T04:01:28;5.40;;;3.22;;
78960;SDS011;68362;45.970;12.646;2023-04-06T04:02:30;7.72;;;3.67;;
78960;SDS011;68362;45.970;12.646;2023-04-06T04:03:33;6.28;;;3.65;;
78960;SDS011;68362;45.970;12.646;2023-04-06T04:04:35;5.35;;;2.92;;
78960;SDS011;68362;45.970;12.646;2023-04-06T04:05:37;8.57;;;3.70;;
78960;SDS011;68362;45.970;12.646;2023-04-06T04:06:39;6.40;;;3.20;;
78960;SDS011;68362;45.970;12.646;2023-04-06T04:07:41;8.48;;;3.75;;
78960;SDS011;68362;45.970;12.646;2023-04-06T04:08:43;7.63;;;3.25;;
78960;SDS011;68362;45.970;12.646;2023-04-06T04:09:45;5.63;;;3.53;;
78960;SDS011;68362;45.970;12.646;2023-04-06T04:10:47;5.78;;;3.00;;
78960;SDS011;68362;45.970;12.646;2023-04-06T04:11:50;7.28;;;3.53;;
78960;SDS011;68362;45.970;12.646;2023-04-06T04:12:52;5.03;;;3.17;;
78960;SDS011;68362;45.970;12.646;2023-04-06T04:13:54;3.83;;;2.90;;
78960;SDS011;68362;45.970;12.646;2023-04-06T04:14:56;5.40;;;3.15;;
78960;SDS011;68362;45.970;12.646;2023-04-06T04:15:58;6.93;;;3.53;;
78960;SDS011;68362;45.970;12.646;2023-04-06T04:17:00;6.55;;;3.45;;
78960;SDS011;68362;45.970;12.646;2023-04-06T04:18:02;5.95;;;3.45;;
78960;SDS011;68362;45.970;12.646;2023-04-06T04:19:04;4.88;;;3.72;;
78960;SDS011;68362;45.970;12.646;2023-04-06T04:20:08;5.00;;;3.47;;
78960;SDS011;68362;45.970;12.646;2023-04-06T04:21:10;7.32;;;3.55;;
78960;SDS011;68362;45.970;12.646;2023-04-06T04:22:12;9.45;;;4.75;;
78960;SDS011;68362;45.970;12.646;2023-04-06T04:23:14;8.25;;;3.58;;
78960;SDS011;68362;45.970;12.646;2023-04-06T04:24:16;7.07;;;3.38;;
78960;SDS011;68362;45.970;12.646;2023-04-06T04:25:18;5.88;;;3.33;;
78960;SDS011;68362;45.970;12.646;2023-04-06T04:26:20;7.60;;;4.05;;
78960;SDS011;68362;45.970;12.646;2023-04-06T04:27:22;7.25;;;4.20;;
78960;SDS011;68362;45.970;12.646;2023-04-06T04:28:24;5.30;;;3.00;;
78960;SDS011;68362;45.970;12.646;2023-04-06T04:29:26;6.75;;;3.75;;
78960;SDS011;68362;45.970;12.646;2023-04-06T04:30:28;6.85;;;3.53;;
78960;SDS011;68362;45.970;12.646;2023-04-06T04:31:30;4.38;;;2.90;;
78960;SDS011;68362;45.970;12.646;2023-04-06T04:33:36;4.93;;;2.80;;
78960;SDS011;68362;45.970;12.646;2023-04-06T04:34:38;8.43;;;3.80;;
78960;SDS011;68362;45.970;12.646;2023-04-06T04:35:42;7.85;;;3.92;;
78960;SDS011;68362;45.970;12.646;2023-04-06T04:36:45;6.05;;;3.83;;
78960;SDS011;68362;45.970;12.646;2023-04-06T04:37:47;8.02;;;4.32;;
78960;SDS011;68362;45.970;12.646;2023-04-06T04:38:49;6.47;;;3.28;;
78960;SDS011;68362;45.970;12.646;2023-04-06T04:39:51;4.97;;;3.45;;
78960;SDS011;68362;45.970;12.646;2023-04-06T04:40:53;6.40;;;3.80;;
78960;SDS011;68362;45.970;12.646;2023-04-06T04:41:56;6.25;;;3.88;;
78960;SDS011;68362;45.970;12.646;2023-04-06T04:42:58;6.80;;;3.67;;
78960;SDS011;68362;45.970;12.646;2023-04-06T04:44:00;7.50;;;3.58;;
78960;SDS011;68362;45.970;12.646;2023-04-06T04:45:02;6.43;;;3.20;;
78960;SDS011;68362;45.970;12.646;2023-04-06T04:46:04;6.13;;;3.67;;
78960;SDS011;68362;45.970;12.646;2023-04-06T04:47:06;11.63;;;3.22;;
78960;SDS011;68362;45.970;12.646;2023-04-06T04:48:08;7.90;;;3.67;;
78960;SDS011;68362;45.970;12.646;2023-04-06T04:49:11;6.60;;;3.55;;
78960;SDS011;68362;45.970;12.646;2023-04-06T04:50:13;5.65;;;3.75;;
78960;SDS011;68362;45.970;12.646;2023-04-06T04:51:15;6.50;;;3.83;;
78960;SDS011;68362;45.970;12.646;2023-04-06T04:52:17;10.73;;;4.03;;
78960;SDS011;68362;45.970;12.646;2023-04-06T04:53:19;8.38;;;3.65;;
78960;SDS011;68362;45.970;12.646;2023-04-06T04:54:22;5.85;;;2.95;;
78960;SDS011;68362;45.970;12.646;2023-04-06T04:55:24;5.50;;;3.53;;
78960;SDS011;68362;45.970;12.646;2023-04-06T04:56:27;5.78;;;3.17;;
78960;SDS011;68362;45.970;12.646;2023-04-06T04:57:30;7.07;;;2.92;;
78960;SDS011;68362;45.970;12.646;2023-04-06T04:58:32;5.75;;;3.63;;
78960;SDS011;68362;45.970;12.646;2023-04-06T04:59:34;6.50;;;3.03;;
78960;SDS011;68362;45.970;12.646;2023-04-06T05:00:37;7.10;;;3.80;;
78960;SDS011;68362;45.970;12.646;2023-04-06T05:01:39;7.22;;;3.70;;
78960;SDS011;68362;45.970;12.646;2023-04-06T05:02:55;5.90;;;3.40;;
78960;SDS011;68362;45.970;12.646;2023-04-06T05:03:58;5.25;;;3.58;;
78960;SDS011;68362;45.970;12.646;2023-04-06T05:05:00;6.20;;;3.80;;
78960;SDS011;68362;45.970;12.646;2023-04-06T05:06:02;6.15;;;3.40;;
78960;SDS011;68362;45.970;12.646;2023-04-06T05:07:08;8.70;;;3.90;;
78960;SDS011;68362;45.970;12.646;2023-04-06T05:08:11;6.05;;;3.90;;
78960;SDS011;68362;45.970;12.646;2023-04-06T05:10:15;4.15;;;3.08;;
78960;SDS011;68362;45.970;12.646;2023-04-06T05:11:18;7.80;;;3.85;;
78960;SDS011;68362;45.970;12.646;2023-04-06T05:12:20;6.38;;;3.08;;
78960;SDS011;68362;45.970;12.646;2023-04-06T05:13:22;9.27;;;3.42;;
78960;SDS011;68362;45.970;12.646;2023-04-06T05:14:25;8.18;;;4.05;;
78960;SDS011;68362;45.970;12.646;2023-04-06T05:15:27;5.72;;;3.75;;
78960;SDS011;68362;45.970;12.646;2023-04-06T05:16:29;5.60;;;3.78;;
78960;SDS011;68362;45.970;12.646;2023-04-06T05:17:31;7.82;;;4.13;;
78960;SDS011;68362;45.970;12.646;2023-04-06T05:18:34;7.90;;;3.50;;
78960;SDS011;68362;45.970;12.646;2023-04-06T05:19:36;10.10;;;4.05;;
78960;SDS011;68362;45.970;12.646;2023-04-06T05:20:38;9.60;;;4.68;;
78960;SDS011;68362;45.970;12.646;2023-04-06T05:21:40;4.60;;;3.22;;
78960;SDS011;68362;45.970;12.646;2023-04-06T05:22:43;13.35;;;4.82;;
78960;SDS011;68362;45.970;12.646;2023-04-06T05:23:45;5.63;;;3.38;;
78960;SDS011;68362;45.970;12.646;2023-04-06T05:24:47;9.85;;;4.03;;
78960;SDS011;68362;45.970;12.646;2023-04-06T05:25:49;8.27;;;3.70;;
78960;SDS011;68362;45.970;12.646;2023-04-06T05:26:52;5.82;;;3.58;;
78960;SDS011;68362;45.970;12.646;2023-04-06T05:27:54;7.82;;;3.53;;
78960;SDS011;68362;45.970;12.646;2023-04-06T05:28:56;10.02;;;4.20;;
78960;SDS011;68362;45.970;12.646;2023-04-06T05:29:58;6.18;;;4.22;;
78960;SDS011;68362;45.970;12.646;2023-04-06T05:31:01;11.43;;;3.40;;
78960;SDS011;68362;45.970;12.646;2023-04-06T05:32:03;11.85;;;4.20;;
78960;SDS011;68362;45.970;12.646;2023-04-06T05:33:05;8.73;;;3.75;;
78960;SDS011;68362;45.970;12.646;2023-04-06T05:34:07;4.85;;;3.55;;
78960;SDS011;68362;45.970;12.646;2023-04-06T05:35:11;6.10;;;3.95;;
78960;SDS011;68362;45.970;12.646;2023-04-06T05:36:14;9.35;;;4.00;;
78960;SDS011;68362;45.970;12.646;2023-04-06T05:37:16;7.15;;;3.63;;
78960;SDS011;68362;45.970;12.646;2023-04-06T05:38:18;6.35;;;4.03;;
78960;SDS011;68362;45.970;12.646;2023-04-06T05:39:20;7.60;;;3.60;;
78960;SDS011;68362;45.970;12.646;2023-04-06T05:40:22;6.30;;;3.33;;
78960;SDS011;68362;45.970;12.646;2023-04-06T05:41:24;8.77;;;3.97;;
78960;SDS011;68362;45.970;12.646;2023-04-06T05:42:27;6.65;;;3.78;;
78960;SDS011;68362;45.970;12.646;2023-04-06T05:43:29;5.60;;;3.22;;
78960;SDS011;68362;45.970;12.646;2023-04-06T05:44:31;8.18;;;3.80;;
78960;SDS011;68362;45.970;12.646;2023-04-06T05:45:33;8.30;;;4.47;;
78960;SDS011;68362;45.970;12.646;2023-04-06T05:46:36;9.20;;;3.97;;
78960;SDS011;68362;45.970;12.646;2023-04-06T05:47:38;8.45;;;4.28;;
78960;SDS011;68362;45.970;12.646;2023-04-06T05:48:41;7.45;;;3.63;;
78960;SDS011;68362;45.970;12.646;2023-04-06T05:49:43;10.10;;;4.22;;
78960;SDS011;68362;45.970;12.646;2023-04-06T05:50:48;5.45;;;3.58;;
78960;SDS011;68362;45.970;12.646;2023-04-06T05:51:52;6.50;;;4.03;;
78960;SDS011;68362;45.970;12.646;2023-04-06T05:52:54;9.10;;;4.18;;
78960;SDS011;68362;45.970;12.646;2023-04-06T05:53:56;9.98;;;4.43;;
78960;SDS011;68362;45.970;12.646;2023-04-06T05:54:59;7.30;;;4.15;;
78960;SDS011;68362;45.970;12.646;2023-04-06T05:56:02;9.57;;;4.13;;
78960;SDS011;68362;45.970;12.646;2023-04-06T05:57:04;11.07;;;4.10;;
78960;SDS011;68362;45.970;12.646;2023-04-06T05:58:06;7.63;;;3.90;;
78960;SDS011;68362;45.970;12.646;2023-04-06T05:59:08;11.45;;;4.63;;
78960;SDS011;68362;45.970;12.646;2023-04-06T06:00:11;8.45;;;4.13;;
78960;SDS011;68362;45.970;12.646;2023-04-06T06:01:14;8.90;;;4.10;;
78960;SDS011;68362;45.970;12.646;2023-04-06T06:02:16;8.20;;;4.68;;
78960;SDS011;68362;45.970;12.646;2023-04-06T06:03:19;8.05;;;4.30;;
78960;SDS011;68362;45.970;12.646;2023-04-06T06:04:21;7.60;;;3.92;;
78960;SDS011;68362;45.970;12.646;2023-04-06T06:05:23;7.78;;;4.45;;
78960;SDS011;68362;45.970;12.646;2023-04-06T06:06:25;9.60;;;3.88;;
78960;SDS011;68362;45.970;12.646;2023-04-06T06:07:29;8.02;;;3.83;;
78960;SDS011;68362;45.970;12.646;2023-04-06T06:08:31;7.95;;;4.65;;
78960;SDS011;68362;45.970;12.646;2023-04-06T06:09:33;9.85;;;4.00;;
78960;SDS011;68362;45.970;12.646;2023-04-06T06:10:35;9.60;;;3.83;;
78960;SDS011;68362;45.970;12.646;2023-04-06T06:11:37;10.93;;;3.92;;
78960;SDS011;68362;45.970;12.646;2023-04-06T06:12:40;10.32;;;3.95;;
78960;SDS011;68362;45.970;12.646;2023-04-06T06:13:42;9.82;;;4.35;;
78960;SDS011;68362;45.970;12.646;2023-04-06T06:14:44;8.70;;;3.80;;
78960;SDS011;68362;45.970;12.646;2023-04-06T06:15:46;10.55;;;4.20;;